Time;durP1;ratioP1;P1;durP2;ratioP2;P2;SDS_P1;SDS_P2;PMS_P1;PMS_P2;Temp;Humidity;BMP_temperature;BMP_pressure;BME280_temperature;BME280_humidity;BME280_pressure;Samples;Min_cycle;Max_cycle;Signal;HPM_P1;HPM_P2
2023/05/26 00:00:03;;;;;;;9.25;8.35;;;;;;;17.10;82.42;96097.69;5048345;28;20277;-88
2023/05/26 00:02:29;;;;;;;9.13;8.32;;;;;;;17.18;81.98;96097.44;5049174;28;20698;-87
2023/05/26 00:04:59;;;;;;;9.50;8.43;;;;;;;17.17;82.49;96095.84;5057805;28;20666;-87
2023/05/26 00:07:25;;;;;;;9.13;8.32;;;;;;;17.24;81.50;96093.25;5071900;28;20729;-88
2023/05/26 00:09:52;;;;;;;10.15;9.25;;;;;;;17.26;81.14;96097.25;5071329;28;20212;-88
2023/05/26 00:12:18;;;;;;;11.27;10.25;;;;;;;17.16;81.56;96102.06;5071461;28;20213;-88
2023/05/26 00:14:46;;;;;;;10.75;9.82;;;;;;;17.11;82.13;96099.28;5072201;28;20205;-88
2023/05/26 00:17:16;;;;;;;11.23;10.15;;;;;;;17.09;82.71;96105.69;5071793;28;20282;-88
2023/05/26 00:19:43;;;;;;;10.63;9.07;;;;;;;17.00;83.38;96110.31;5072220;28;20212;-88
2023/05/26 00:22:14;;;;;;;10.00;9.10;;;;;;;16.97;82.73;96099.50;5071688;28;20197;-88
2023/05/26 00:24:41;;;;;;;9.65;8.75;;;;;;;16.83;83.82;96101.34;5071875;28;20209;-88
2023/05/26 00:27:08;;;;;;;10.75;9.75;;;;;;;16.77;84.43;96104.75;5071872;28;20227;-88
2023/05/26 00:29:36;;;;;;;10.35;9.43;;;;;;;16.76;84.68;96105.75;5071554;28;20316;-88
2023/05/26 00:32:02;;;;;;;10.40;9.38;;;;;;;16.78;84.83;96114.94;5071148;28;20208;-88
2023/05/26 00:34:29;;;;;;;10.80;9.90;;;;;;;16.70;85.23;96114.38;5068255;28;20197;-88
2023/05/26 00:36:56;;;;;;;10.77;9.77;;;;;;;16.76;84.37;96110.94;5066176;28;20216;-88
2023/05/26 00:39:23;;;;;;;11.32;9.95;;;;;;;16.82;84.54;96107.53;5069239;28;20222;-89
2023/05/26 00:41:50;;;;;;;10.95;9.95;;;;;;;16.90;83.93;96110.75;5071321;28;20211;-88
2023/05/26 00:44:16;;;;;;;10.15;9.20;;;;;;;16.90;83.74;96112.53;5070978;28;20201;-88
2023/05/26 00:46:49;;;;;;;10.05;9.15;;;;;;;16.98;83.05;96111.50;5071231;28;20220;-88
2023/05/26 00:49:18;;;;;;;9.85;9.05;;;;;;;16.95;82.71;96109.31;5071511;28;20201;-88
2023/05/26 00:51:46;;;;;;;9.93;8.98;;;;;;;16.97;82.36;96105.50;5070563;28;20697;-87
2023/05/26 00:54:13;;;;;;;10.00;9.10;;;;;;;16.84;83.12;96106.34;5071157;28;20208;-88
2023/05/26 00:56:42;;;;;;;12.68;9.30;;;;;;;16.86;82.09;96106.94;5071429;28;20232;-89
2023/05/26 00:59:11;;;;;;;10.45;9.10;;;;;;;16.87;82.79;96111.16;5071111;28;20205;-88
2023/05/26 01:01:38;;;;;;;9.75;8.95;;;;;;;16.95;81.98;96110.13;5053615;28;20247;-88
2023/05/26 01:04:05;;;;;;;10.75;9.13;;;;;;;17.01;81.88;96106.72;5050767;28;20296;-88
2023/05/26 01:06:31;;;;;;;9.63;8.82;;;;;;;16.94;82.27;96108.50;5069730;28;20237;-88
2023/05/26 01:08:58;;;;;;;10.30;9.30;;;;;;;16.88;81.78;96102.34;5070769;28;20208;-89
2023/05/26 01:11:30;;;;;;;9.73;8.82;;;;;;;16.87;82.03;96105.94;5070572;28;20225;-88
2023/05/26 01:14:04;;;;;;;10.35;9.25;;;;;;;16.86;82.45;96096.53;5069699;28;20204;-87
2023/05/26 01:16:39;;;;;;;9.57;8.50;;;;;;;16.92;81.81;96106.13;5070873;28;20787;-88
2023/05/26 01:19:19;;;;;;;9.52;8.57;;;;;;;16.86;81.77;96104.34;5070818;28;20261;-88
2023/05/26 01:21:50;;;;;;;9.40;8.55;;;;;;;16.79;82.17;96102.75;5070787;28;20197;-88
2023/05/26 01:24:28;;;;;;;9.75;8.68;;;;;;;16.72;82.63;96107.16;5070255;28;20201;-88
2023/05/26 01:27:08;;;;;;;10.32;8.70;;;;;;;16.71;82.22;96093.38;5070359;28;20590;-88
2023/05/26 01:29:37;;;;;;;9.50;8.57;;;;;;;16.74;81.58;96100.75;5070567;28;20649;-88
2023/05/26 01:32:09;;;;;;;8.65;7.75;;;;;;;16.66;82.26;96090.56;5062979;28;20197;-88
2023/05/26 01:34:35;;;;;;;9.35;8.23;;;;;;;16.68;81.40;96083.38;5050396;28;20591;-88
2023/05/26 01:37:02;;;;;;;9.43;7.72;;;;;;;16.58;81.32;96082.94;5050417;28;20740;-88
2023/05/26 01:39:28;;;;;;;10.07;8.50;;;;;;;16.62;80.99;96091.13;5051488;28;20198;-88
2023/05/26 01:42:05;;;;;;;9.55;8.65;;;;;;;16.55;81.23;96093.72;5049890;28;20193;-88
2023/05/26 01:44:38;;;;;;;8.98;8.07;;;;;;;16.55;80.97;96096.31;5050273;28;20274;-88
2023/05/26 01:47:06;;;;;;;8.25;7.15;;;;;;;16.60;80.46;96096.53;5050151;28;20595;-88
2023/05/26 01:49:34;;;;;;;8.75;7.85;;;;;;;16.57;79.54;96092.53;5049650;28;20693;-89
2023/05/26 02:05:28;;;;;;;8.68;7.82;;;;;;;16.30;79.19;96090.94;5058344;28;20207;-88
2023/05/26 02:07:54;;;;;;;7.82;7.05;;;;;;;16.32;79.06;96091.56;5055197;28;20200;-88
2023/05/26 02:10:21;;;;;;;9.82;7.15;;;;;;;16.35;79.11;96093.75;5067455;28;20601;-88
2023/05/26 02:12:47;;;;;;;7.75;7.05;;;;;;;16.40;78.52;96096.53;5069448;28;20204;-88
2023/05/26 02:15:14;;;;;;;8.30;7.53;;;;;;;16.34;78.86;96088.75;5069328;28;20723;-88
2023/05/26 02:17:41;;;;;;;8.07;6.85;;;;;;;16.36;78.28;96089.31;5069350;28;20294;-89
2023/05/26 02:20:09;;;;;;;7.80;7.00;;;;;;;16.35;77.91;96090.34;5069546;28;20239;-88
2023/05/26 02:22:37;;;;;;;7.68;6.88;;;;;;;16.29;77.69;96096.34;5068865;28;20294;-88
2023/05/26 02:25:06;;;;;;;7.55;6.72;;;;;;;16.22;77.70;96093.72;5069221;28;20204;-88
2023/05/26 02:27:32;;;;;;;8.82;6.60;;;;;;;16.22;77.39;96099.72;5065784;28;20220;-88
2023/05/26 02:30:00;;;;;;;7.10;6.20;;;;;;;16.23;77.54;96101.31;5064338;28;20225;-88
2023/05/26 02:32:29;;;;;;;8.07;6.72;;;;;;;16.19;76.86;96100.13;5069256;28;20201;-88
2023/05/26 02:34:58;;;;;;;9.25;7.10;;;;;;;16.18;76.49;96101.13;5069460;28;20239;-88
2023/05/26 02:37:26;;;;;;;8.75;7.18;;;;;;;16.03;76.47;96097.09;5069081;28;20224;-88
2023/05/26 02:39:54;;;;;;;8.05;7.25;;;;;;;15.94;76.54;96103.50;5067448;28;20201;-88
2023/05/26 02:42:26;;;;;;;8.02;7.22;;;;;;;15.85;77.08;96102.88;5069139;28;20629;-88
2023/05/26 02:44:53;;;;;;;7.78;6.88;;;;;;;15.85;76.95;96106.25;5068962;28;20204;-88
2023/05/26 02:47:19;;;;;;;8.32;7.53;;;;;;;15.92;76.66;96108.88;5069009;28;20217;-88
2023/05/26 02:49:46;;;;;;;7.68;6.75;;;;;;;15.83;76.20;96103.06;5069050;28;20205;-88
2023/05/26 02:55:35;;;;;;;7.38;6.68;;;;;;;15.63;77.27;96107.38;5063254;28;20613;-88
2023/05/26 02:58:02;;;;;;;7.82;6.88;;;;;;;15.63;76.98;96111.78;5055939;28;20590;-88
2023/05/26 03:00:29;;;;;;;8.90;6.65;;;;;;;15.64;76.97;96116.78;5056072;28;20234;-88
2023/05/26 03:02:55;;;;;;;7.10;6.40;;;;;;;15.60;76.96;96110.38;5067776;28;20208;-88
2023/05/26 03:08:43;;;;;;;7.88;6.38;;;;;;;15.65;75.92;96110.59;5047987;28;20273;-88
2023/05/26 03:11:11;;;;;;;8.23;6.95;;;;;;;15.66;75.55;96114.78;5057724;28;20260;-88
2023/05/26 03:13:37;;;;;;;8.30;7.15;;;;;;;15.63;75.99;96112.59;5056181;28;20212;-88
2023/05/26 03:16:06;;;;;;;7.07;6.47;;;;;;;15.55;75.23;96112.75;5048830;28;20221;-88
2023/05/26 03:18:33;;;;;;;7.43;6.70;;;;;;;15.48;75.56;96111.91;5048867;28;20240;-88
2023/05/26 03:20:59;;;;;;;7.68;6.85;;;;;;;15.57;75.23;96108.19;5066705;28;20207;-87
2023/05/26 03:23:26;;;;;;;8.85;6.63;;;;;;;15.50;74.87;96110.72;5065981;28;20205;-88
2023/05/26 03:25:52;;;;;;;8.85;6.93;;;;;;;15.50;75.06;96112.50;5063347;28;20227;-88
2023/05/26 03:28:20;;;;;;;7.57;6.88;;;;;;;15.38;75.64;96109.69;5068360;28;20201;-88
2023/05/26 03:30:47;;;;;;;7.47;6.78;;;;;;;15.25;76.22;96122.56;5068623;28;20320;-88
2023/05/26 03:33:20;;;;;;;7.72;6.35;;;;;;;15.15;76.70;96120.34;5068899;28;20200;-88
2023/05/26 03:35:47;;;;;;;7.10;6.35;;;;;;;15.26;76.42;96120.78;5068382;28;20220;-88
2023/05/26 03:38:13;;;;;;;8.63;6.85;;;;;;;15.36;75.74;96119.44;5066344;28;20189;-88
2023/05/26 03:40:40;;;;;;;8.00;7.20;;;;;;;15.33;75.50;96124.22;5068457;28;20197;-88
2023/05/26 03:43:06;;;;;;;9.82;6.90;;;;;;;15.33;75.65;96127.63;5067958;28;20201;-88
2023/05/26 03:45:39;;;;;;;7.25;6.40;;;;;;;15.28;76.18;96135.16;5068383;28;20693;-88
2023/05/26 03:48:08;;;;;;;7.60;6.80;;;;;;;15.31;75.60;96123.59;5068377;28;20204;-88
2023/05/26 03:50:35;;;;;;;8.25;6.82;;;;;;;15.27;74.99;96124.97;5068080;28;20235;-88
2023/05/26 03:53:02;;;;;;;8.43;6.85;;;;;;;15.22;75.08;96122.94;5068328;28;20746;-88
2023/05/26 03:55:28;;;;;;;6.90;6.20;;;;;;;15.20;75.25;96128.34;5068678;28;20242;-88
2023/05/26 03:57:54;;;;;;;7.55;6.72;;;;;;;15.23;74.94;96123.75;5068246;28;20732;-88
2023/05/26 04:00:21;;;;;;;9.57;7.65;;;;;;;15.25;75.03;96130.34;5062669;28;20205;-88
2023/05/26 04:02:49;;;;;;;9.35;7.35;;;;;;;15.30;75.06;96127.19;5047468;28;20209;-88
2023/05/26 04:05:16;;;;;;;9.25;7.10;;;;;;;15.40;74.73;96132.81;5056274;28;20204;-88
2023/05/26 04:07:44;;;;;;;7.28;6.50;;;;;;;15.32;75.26;96135.59;5068374;28;20216;-88
2023/05/26 04:10:11;;;;;;;10.13;7.28;;;;;;;15.28;75.57;96136.97;5068031;28;20205;-88
2023/05/26 04:16:15;;;;;;;8.98;7.90;;;;;;;15.42;75.12;96134.22;5067944;28;20211;-88
2023/05/26 04:18:49;;;;;;;7.85;7.15;;;;;;;15.47;75.41;96136.25;5060822;28;20210;-88
2023/05/26 04:21:16;;;;;;;9.00;7.40;;;;;;;15.39;75.79;96144.22;5059551;28;20189;-88
2023/05/26 04:23:43;;;;;;;9.55;7.28;;;;;;;15.42;75.28;96144.59;5068188;28;20204;-88
2023/05/26 04:26:09;;;;;;;10.52;7.32;;;;;;;15.48;75.10;96148.25;5068095;28;20228;-87
2023/05/26 04:28:36;;;;;;;7.45;6.75;;;;;;;15.58;74.64;96145.34;5068495;28;20207;-88
2023/05/26 04:31:03;;;;;;;8.15;7.35;;;;;;;15.65;74.21;96138.34;5067717;28;20370;-88
2023/05/26 04:33:30;;;;;;;8.57;7.47;;;;;;;15.68;74.00;96145.75;5067605;28;20666;-88
2023/05/26 04:35:58;;;;;;;8.80;7.93;;;;;;;15.73;73.31;96145.97;5067872;28;20256;-88
2023/05/26 04:38:24;;;;;;;7.60;6.88;;;;;;;15.74;73.26;96148.38;5066131;28;20200;-88
2023/05/26 04:40:51;;;;;;;10.93;7.95;;;;;;;15.69;73.93;96147.34;5067487;28;20201;-89
2023/05/26 04:43:20;;;;;;;7.63;6.82;;;;;;;15.79;73.57;96150.38;5068342;28;20201;-88
2023/05/26 04:45:47;;;;;;;7.97;7.18;;;;;;;15.87;73.08;96147.63;5067845;28;20602;-88
2023/05/26 04:48:14;;;;;;;8.35;7.00;;;;;;;15.91;72.89;96150.63;5068139;28;20223;-88
2023/05/26 04:50:40;;;;;;;8.32;6.75;;;;;;;15.94;72.92;96148.44;5071726;28;20716;-88
2023/05/26 04:53:08;;;;;;;8.60;6.95;;;;;;;15.93;72.61;96143.44;5071187;28;20208;-88
2023/05/26 04:55:36;;;;;;;8.63;6.90;;;;;;;15.88;73.50;96144.03;5070909;28;20711;-88
2023/05/26 04:58:03;;;;;;;9.15;7.05;;;;;;;15.88;73.69;96146.63;5071090;28;20892;-88
2023/05/26 05:00:31;;;;;;;10.40;6.82;;;;;;;15.79;72.20;96145.19;5064173;28;20547;-88
2023/05/26 05:03:00;;;;;;;10.20;7.20;;;;;;;15.84;73.11;96145.41;5050431;28;20208;-88
2023/05/26 05:05:27;;;;;;;8.00;7.20;;;;;;;15.81;73.04;96158.78;5061271;28;20284;-88
2023/05/26 05:07:53;;;;;;;7.28;6.57;;;;;;;15.92;72.83;96158.22;5071133;28;20204;-88
2023/05/26 05:10:21;;;;;;;8.57;7.18;;;;;;;16.07;72.53;96161.47;5071054;28;20200;-88
2023/05/26 05:12:48;;;;;;;7.55;6.82;;;;;;;15.92;71.87;96160.03;5070568;28;20223;-88
2023/05/26 05:15:18;;;;;;;9.15;6.80;;;;;;;16.02;71.58;96152.66;5071232;28;20193;-88
2023/05/26 05:17:47;;;;;;;11.07;7.07;;;;;;;16.04;71.89;96161.03;5062462;28;20246;-89
2023/05/26 05:20:13;;;;;;;9.20;7.32;;;;;;;16.15;70.60;96163.88;5070767;28;20200;-88
2023/05/26 05:22:40;;;;;;;7.25;6.55;;;;;;;16.23;70.43;96168.09;5070583;28;20207;-88
2023/05/26 05:25:07;;;;;;;7.43;6.57;;;;;;;16.30;70.31;96166.31;5070819;28;20223;-88
2023/05/26 05:27:37;;;;;;;8.32;6.57;;;;;;;16.31;68.59;96167.91;5070667;28;20224;-88
2023/05/26 05:30:14;;;;;;;8.52;6.80;;;;;;;16.37;68.59;96159.31;5070866;28;20211;-88
2023/05/26 05:32:47;;;;;;;12.05;6.60;;;;;;;16.53;68.58;96158.16;5070989;28;20274;-88
2023/05/26 05:35:14;;;;;;;8.13;6.93;;;;;;;16.48;68.73;96168.31;5071058;28;20208;-88
2023/05/26 05:37:40;;;;;;;9.85;7.25;;;;;;;16.65;68.95;96164.38;5070775;28;20221;-88
2023/05/26 05:40:08;;;;;;;8.57;6.82;;;;;;;16.77;67.07;96161.94;5069500;28;20196;-88
2023/05/26 05:42:38;;;;;;;10.15;7.05;;;;;;;16.72;67.18;96156.56;5070699;28;20197;-88
2023/05/26 05:45:06;;;;;;;8.52;7.53;;;;;;;16.72;68.40;96152.19;5070096;28;20236;-88
2023/05/26 05:47:33;;;;;;;7.97;6.63;;;;;;;16.90;67.22;96151.56;5070272;28;20278;-88
2023/05/26 05:49:59;;;;;;;8.70;6.80;;;;;;;17.06;67.17;96158.13;5069911;28;20204;-88
2023/05/26 05:52:26;;;;;;;9.40;7.68;;;;;;;17.08;67.03;96156.13;5070351;28;20231;-88
2023/05/26 05:54:52;;;;;;;8.43;7.07;;;;;;;17.08;66.43;96156.94;5070389;28;20232;-88
2023/05/26 05:57:19;;;;;;;9.18;7.85;;;;;;;17.04;66.55;96155.75;5070200;28;20224;-88
2023/05/26 05:59:46;;;;;;;10.38;7.38;;;;;;;17.24;66.30;96148.69;5068437;28;20208;-88
2023/05/26 06:02:14;;;;;;;10.98;7.38;;;;;;;17.34;65.39;96155.25;5048895;28;20201;-87
2023/05/26 06:04:42;;;;;;;10.18;7.60;;;;;;;17.24;65.41;96161.72;5053111;28;20196;-87
2023/05/26 06:07:08;;;;;;;8.70;7.30;;;;;;;17.16;66.30;96164.50;5070146;28;20212;-87
2023/05/26 06:09:34;;;;;;;8.48;6.97;;;;;;;17.21;64.95;96169.91;5058163;28;20200;-88
2023/05/26 06:12:01;;;;;;;9.95;8.20;;;;;;;17.32;65.81;96170.31;5069360;28;20228;-88
2023/05/26 06:14:28;;;;;;;12.25;8.25;;;;;;;17.42;66.59;96163.66;5061591;28;20832;-88
2023/05/26 06:16:56;;;;;;;8.82;7.32;;;;;;;17.48;67.24;96165.47;5069609;28;20231;-88
2023/05/26 06:19:22;;;;;;;9.00;7.53;;;;;;;17.64;66.49;96166.84;5069504;28;20208;-88
2023/05/26 06:21:50;;;;;;;11.27;8.18;;;;;;;17.74;64.59;96164.56;5069264;28;20200;-88
2023/05/26 06:24:16;;;;;;;11.73;8.13;;;;;;;17.80;65.43;96168.16;5069309;28;20197;-88
2023/05/26 06:26:43;;;;;;;9.75;7.85;;;;;;;17.79;65.94;96174.38;5069469;28;20621;-88
2023/05/26 06:29:09;;;;;;;9.68;7.78;;;;;;;17.78;64.76;96175.38;5069583;28;20207;-88
2023/05/26 06:31:36;;;;;;;14.63;11.68;;;;;;;17.88;64.43;96176.56;5068785;28;20748;-89
2023/05/26 06:34:03;;;;;;;19.20;17.13;;;;;;;17.92;64.44;96180.31;5068986;28;20695;-87
2023/05/26 06:36:30;;;;;;;10.00;9.02;;;;;;;17.93;65.31;96181.13;5069122;28;20821;-88
2023/05/26 06:38:57;;;;;;;11.32;9.40;;;;;;;18.03;65.22;96171.06;5067489;28;20201;-88
2023/05/26 06:41:23;;;;;;;9.98;8.00;;;;;;;18.14;65.33;96183.44;5068660;28;20209;-88
2023/05/26 06:43:50;;;;;;;10.23;8.10;;;;;;;18.14;64.99;96174.81;5068993;28;20203;-87
2023/05/26 07:14:33;;;;;;;9.18;8.15;;;;;;;18.62;64.99;96180.38;5064472;28;20307;-88
2023/05/26 07:30:28;;;;;;;11.82;10.60;;;;;;;19.14;63.01;96186.94;5049311;28;20273;-88
2023/05/26 07:32:55;;;;;;;13.18;9.32;;;;;;;19.22;63.57;96176.25;5054240;28;20217;-88
2023/05/26 07:35:21;;;;;;;12.63;9.05;;;;;;;19.29;63.02;96179.56;5049549;28;20197;-88
2023/05/26 07:37:48;;;;;;;12.43;8.75;;;;;;;19.45;62.80;96172.97;5048284;28;20220;-88
2023/05/26 07:40:14;;;;;;;10.98;9.65;;;;;;;19.57;61.64;96171.28;5048781;28;20204;-89
2023/05/26 07:42:40;;;;;;;11.70;10.48;;;;;;;19.62;62.10;96175.84;5047469;28;20193;-88
2023/05/26 07:45:08;;;;;;;22.02;19.45;;;;;;;19.71;61.61;96176.34;5048154;28;20423;-88
2023/05/26 07:47:36;;;;;;;12.98;11.07;;;;;;;19.84;61.83;96168.34;5047743;28;20271;-88
2023/05/26 07:50:02;;;;;;;11.60;10.43;;;;;;;19.93;61.14;96167.03;5048126;28;20201;-88
2023/05/26 07:52:29;;;;;;;11.77;9.50;;;;;;;19.96;60.64;96172.63;5047990;28;20228;-89
2023/05/26 07:54:55;;;;;;;13.02;9.25;;;;;;;20.11;61.08;96179.28;5048035;28;20271;-88
2023/05/26 07:57:22;;;;;;;13.88;9.93;;;;;;;20.28;60.87;96175.81;5048014;28;20300;-88
2023/05/26 07:59:48;;;;;;;11.98;9.40;;;;;;;20.35;60.34;96176.53;5049598;28;20208;-88
2023/05/26 08:02:15;;;;;;;13.20;9.52;;;;;;;20.42;58.54;96173.81;5048376;28;20620;-88
2023/05/26 08:04:42;;;;;;;11.30;8.98;;;;;;;20.42;58.10;96173.81;5061721;28;20204;-88
2023/05/26 08:07:09;;;;;;;11.52;9.73;;;;;;;20.58;59.78;96180.25;5050834;28;20222;-88
2023/05/26 08:09:35;;;;;;;10.93;9.68;;;;;;;20.75;58.97;96178.59;5052704;28;20196;-88
2023/05/26 08:12:02;;;;;;;12.65;9.82;;;;;;;20.89;59.91;96177.34;5067366;28;20579;-88
2023/05/26 08:14:28;;;;;;;11.60;10.45;;;;;;;20.98;57.09;96178.59;5067946;28;20223;-89
2023/05/26 08:16:54;;;;;;;12.80;9.57;;;;;;;21.08;59.11;96175.41;5067698;28;20640;-88
2023/05/26 08:19:21;;;;;;;11.45;10.10;;;;;;;21.12;56.67;96179.19;5067560;28;20307;-88
2023/05/26 08:21:49;;;;;;;11.00;9.90;;;;;;;21.25;56.97;96176.34;5067308;28;20196;-88
2023/05/26 08:24:15;;;;;;;10.55;9.48;;;;;;;21.27;57.05;96176.13;5070248;28;20559;-88
2023/05/26 08:26:42;;;;;;;10.35;9.32;;;;;;;21.20;56.64;96172.81;5071380;28;20224;-88
2023/05/26 08:29:09;;;;;;;14.23;12.82;;;;;;;21.34;56.94;96164.50;5071384;28;20289;-88
2023/05/26 08:31:36;;;;;;;12.73;10.55;;;;;;;21.43;56.24;96167.56;5071321;28;20204;-89
2023/05/26 08:34:02;;;;;;;10.52;9.30;;;;;;;21.51;55.40;96164.59;5071198;28;20209;-88
2023/05/26 08:36:29;;;;;;;11.65;8.20;;;;;;;21.69;56.78;96166.25;5071144;28;20221;-88
2023/05/26 08:38:57;;;;;;;11.80;9.07;;;;;;;21.88;55.08;96174.75;5062551;28;20209;-88
2023/05/26 08:41:25;;;;;;;13.80;8.85;;;;;;;22.09;55.51;96171.53;5050659;28;20202;-88
2023/05/26 08:44:00;;;;;;;11.75;9.20;;;;;;;22.23;55.13;96172.84;5050774;28;20205;-88
2023/05/26 08:46:32;;;;;;;10.63;9.27;;;;;;;22.27;53.30;96171.34;5050580;28;20717;-88
2023/05/26 08:48:58;;;;;;;10.60;9.60;;;;;;;22.25;53.26;96167.34;5050495;28;20190;-89
2023/05/26 08:51:25;;;;;;;16.27;8.38;;;;;;;22.31;53.82;96169.84;5050250;28;20201;-88
2023/05/26 09:01:02;;;;;;;10.93;8.45;;;;;;;22.77;52.25;96160.13;5037831;28;20232;-88
2023/05/26 09:10:22;;;;;;;8.55;7.35;;;;;;;23.39;50.98;96163.38;5061434;28;20192;-88
2023/05/26 09:12:52;;;;;;;9.02;8.23;;;;;;;23.06;51.72;96168.72;5058152;28;20220;-88
2023/05/26 09:15:21;;;;;;;9.65;7.88;;;;;;;23.02;51.80;96167.59;5050065;28;20690;-88
2023/05/26 09:17:49;;;;;;;9.05;7.68;;;;;;;23.17;51.25;96169.63;5050560;28;20654;-88
2023/05/26 09:20:16;;;;;;;9.82;8.32;;;;;;;23.37;51.82;96162.84;5050162;28;20206;-88
2023/05/26 09:22:45;;;;;;;12.15;8.60;;;;;;;23.46;50.07;96157.16;5049994;28;20570;-88
2023/05/26 09:25:11;;;;;;;9.50;8.20;;;;;;;23.14;51.08;96162.25;5050490;28;20630;-88
2023/05/26 09:27:38;;;;;;;9.82;8.20;;;;;;;23.31;50.32;96158.53;5049531;28;20225;-88
2023/05/26 09:30:06;;;;;;;12.18;9.65;;;;;;;23.57;49.82;96146.56;5050084;28;20697;-89
2023/05/26 09:32:33;;;;;;;9.52;8.43;;;;;;;23.82;50.13;96150.53;5049885;28;20228;-88
2023/05/26 09:35:03;;;;;;;9.85;8.85;;;;;;;24.13;49.72;96149.03;5049283;28;20555;-89
2023/05/26 09:37:30;;;;;;;16.25;14.65;;;;;;;24.25;48.30;96145.22;5049721;28;20218;-88
2023/05/26 09:40:06;;;;;;;9.95;8.52;;;;;;;24.31;47.06;96151.34;5051203;28;20198;-89
2023/05/26 09:42:33;;;;;;;8.75;7.85;;;;;;;24.37;47.81;96145.88;5049037;28;20197;-88
2023/05/26 09:45:02;;;;;;;8.68;7.90;;;;;;;24.52;48.19;96141.78;5049917;28;20233;-87
2023/05/26 09:47:33;;;;;;;8.93;7.88;;;;;;;24.17;49.33;96148.28;5049844;28;20224;-89
2023/05/26 09:50:04;;;;;;;10.30;8.05;;;;;;;23.77;50.32;96152.06;5049815;28;20593;-89
2023/05/26 09:52:33;;;;;;;10.43;7.85;;;;;;;23.54;50.93;96159.41;5049580;28;20604;-89
2023/05/26 09:54:59;;;;;;;10.07;7.57;;;;;;;23.38;51.80;96163.63;5049928;28;20247;-88
2023/05/26 09:57:28;;;;;;;9.52;8.32;;;;;;;23.18;52.75;96166.78;5065796;28;20220;-89
2023/05/26 09:59:56;;;;;;;25.35;22.85;;;;;;;23.03;52.57;96164.72;5056916;28;20198;-88
2023/05/26 10:02:24;;;;;;;20.70;18.58;;;;;;;22.91;52.27;96158.75;5068485;28;20693;-88
2023/05/26 10:04:52;;;;;;;9.27;8.35;;;;;;;22.70;52.53;96162.09;5064188;28;20204;-87
2023/05/26 10:07:21;;;;;;;10.45;9.00;;;;;;;22.88;50.79;96163.72;5049300;28;20221;-88
2023/05/26 10:09:51;;;;;;;9.80;8.80;;;;;;;23.21;49.88;96160.25;5056110;28;20212;-88
2023/05/26 10:12:20;;;;;;;11.05;7.63;;;;;;;23.66;49.12;96155.63;5068755;28;20229;-87
2023/05/26 10:14:47;;;;;;;14.10;12.65;;;;;;;23.77;48.68;96144.19;5069025;28;20193;-88
2023/05/26 10:17:17;;;;;;;10.07;8.85;;;;;;;23.43;49.31;96148.72;5068713;28;20630;-88
2023/05/26 10:19:44;;;;;;;8.88;7.90;;;;;;;22.98;49.46;96148.09;5069019;28;20212;-88
2023/05/26 10:22:17;;;;;;;7.78;6.65;;;;;;;22.97;50.06;96157.00;5068775;28;20193;-88
2023/05/26 10:24:51;;;;;;;7.30;6.60;;;;;;;22.89;50.11;96152.97;5069361;28;20517;-88
2023/05/26 10:27:24;;;;;;;8.45;7.03;;;;;;;22.80;50.70;96153.59;5068651;28;20217;-88
2023/05/26 10:30:08;;;;;;;7.63;6.82;;;;;;;23.17;51.40;96154.66;5068626;28;20436;-88
2023/05/26 10:32:45;;;;;;;8.13;6.65;;;;;;;23.27;51.14;96149.56;5068597;28;20260;-88
2023/05/26 10:35:27;;;;;;;7.93;6.40;;;;;;;23.23;50.61;96150.28;5069015;28;20208;-87
2023/05/26 10:38:11;;;;;;;7.13;6.40;;;;;;;23.36;50.11;96155.19;5068741;28;20200;-87
2023/05/26 10:40:43;;;;;;;7.80;7.00;;;;;;;23.84;49.56;96143.19;5048681;28;20263;-87
2023/05/26 10:43:14;;;;;;;7.85;7.00;;;;;;;24.30;48.61;96142.66;5048176;28;20200;-87
2023/05/26 10:45:45;;;;;;;9.10;7.00;;;;;;;24.59;47.87;96143.19;5048289;28;20296;-87
2023/05/26 10:48:12;;;;;;;8.98;6.95;;;;;;;24.93;47.44;96140.25;5048310;28;20197;-87
2023/05/26 10:51:10;;;;;;;7.15;6.45;;;;;;;25.20;46.68;96133.09;5063833;28;20208;-87
2023/05/26 10:53:42;;;;;;;6.75;5.97;;;;;;;25.42;46.01;96133.72;5064261;28;20866;-87
2023/05/26 10:56:12;;;;;;;6.47;5.80;;;;;;;25.31;45.71;96132.09;5064743;28;20213;-87
2023/05/26 10:58:41;;;;;;;7.35;6.22;;;;;;;25.40;46.76;96124.50;5068725;28;20196;-87
2023/05/26 11:01:11;;;;;;;17.60;15.90;;;;;;;25.63;45.22;96134.63;5056166;28;20229;-87
2023/05/26 11:03:41;;;;;;;9.13;7.80;;;;;;;25.76;45.34;96131.53;5047530;28;20674;-87
2023/05/26 11:06:09;;;;;;;7.25;6.55;;;;;;;25.85;44.24;96131.00;5063959;28;20220;-87
2023/05/26 11:08:40;;;;;;;7.00;6.03;;;;;;;25.92;44.75;96127.09;5067991;28;20581;-87
2023/05/26 11:11:08;;;;;;;7.80;5.85;;;;;;;26.00;44.89;96125.78;5067678;28;20201;-87
2023/05/26 11:13:44;;;;;;;6.90;6.30;;;;;;;25.84;44.49;96127.59;5067776;28;20247;-88
2023/05/26 11:16:19;;;;;;;7.95;6.57;;;;;;;25.57;44.49;96126.94;5068044;28;20231;-87
2023/05/26 11:18:50;;;;;;;7.28;6.38;;;;;;;25.44;45.22;96128.19;5067855;28;20207;-87
2023/05/26 11:21:19;;;;;;;7.22;6.53;;;;;;;25.06;45.86;96129.31;5068111;28;20472;-87
2023/05/26 11:23:46;;;;;;;9.52;6.70;;;;;;;24.76;46.10;96135.94;5067544;28;20197;-87
2023/05/26 11:26:14;;;;;;;7.88;6.68;;;;;;;24.71;47.10;96130.63;5068320;28;20312;-88
2023/05/26 11:28:44;;;;;;;7.88;6.25;;;;;;;25.11;46.06;96138.03;5067807;28;20274;-87
2023/05/26 11:31:12;;;;;;;8.43;7.03;;;;;;;25.34;44.89;96134.22;5067734;28;20242;-87
2023/05/26 11:33:39;;;;;;;10.00;6.57;;;;;;;25.13;45.42;96129.88;5068071;28;20231;-87
2023/05/26 11:36:07;;;;;;;7.68;6.95;;;;;;;24.97;45.24;96133.47;5068025;28;20813;-88
2023/05/26 11:38:34;;;;;;;9.23;6.63;;;;;;;25.03;46.07;96137.72;5062163;28;20623;-87
2023/05/26 11:41:03;;;;;;;7.35;6.60;;;;;;;25.16;44.85;96128.59;5047874;28;20292;-87
2023/05/26 11:43:29;;;;;;;10.40;6.85;;;;;;;25.09;45.53;96132.22;5047367;28;20201;-87
2023/05/26 11:46:01;;;;;;;7.75;6.65;;;;;;;24.97;45.01;96120.31;5054866;28;20738;-87
2023/05/26 11:48:31;;;;;;;8.30;6.38;;;;;;;24.84;45.93;96137.28;5039752;28;20489;-88
2023/05/26 11:50:58;;;;;;;9.02;6.53;;;;;;;25.00;45.68;96135.59;5058806;28;20204;-87
2023/05/26 11:53:24;;;;;;;6.57;5.78;;;;;;;25.30;44.92;96127.06;5067722;28;20455;-87
2023/05/26 11:56:01;;;;;;;7.30;6.60;;;;;;;25.53;44.13;96125.88;5067530;28;20221;-87
2023/05/26 11:58:28;;;;;;;7.18;6.43;;;;;;;25.72;43.45;96127.03;5069689;28;20211;-87
2023/05/26 12:00:58;;;;;;;6.60;5.95;;;;;;;25.84;42.78;96126.78;5060981;28;20208;-87
2023/05/26 12:03:25;;;;;;;10.15;6.72;;;;;;;25.96;43.21;96122.88;5050696;28;20209;-87
2023/05/26 12:05:51;;;;;;;6.85;6.18;;;;;;;26.11;42.00;96130.84;5065371;28;20217;-87
2023/05/26 12:08:20;;;;;;;8.70;6.40;;;;;;;26.25;42.04;96125.03;5071772;28;20205;-87
2023/05/26 12:10:47;;;;;;;7.65;6.15;;;;;;;26.27;42.10;96126.38;5071300;28;20201;-87
2023/05/26 12:13:13;;;;;;;7.68;6.63;;;;;;;25.88;42.52;96125.22;5070961;28;20220;-88
2023/05/26 12:15:39;;;;;;;9.02;6.50;;;;;;;25.59;42.34;96114.28;5071663;28;20455;-87
2023/05/26 12:18:08;;;;;;;9.25;5.70;;;;;;;25.26;43.14;96118.88;5071315;28;20208;-87
2023/05/26 12:20:35;;;;;;;6.78;6.05;;;;;;;25.29;43.50;96118.38;5071471;28;20201;-87
2023/05/26 12:23:02;;;;;;;8.93;6.30;;;;;;;25.48;43.86;96113.44;5071151;28;20693;-87
2023/05/26 12:25:30;;;;;;;7.38;5.80;;;;;;;25.70;43.13;96114.09;5071057;28;20200;-87
2023/05/26 12:27:57;;;;;;;6.10;5.53;;;;;;;25.91;42.45;96114.16;5071045;28;20205;-87
2023/05/26 12:30:26;;;;;;;7.55;5.80;;;;;;;25.99;41.47;96116.28;5071625;28;20600;-88
2023/05/26 12:32:52;;;;;;;6.50;5.90;;;;;;;25.94;40.91;96121.56;5071156;28;20217;-87
2023/05/26 12:35:20;;;;;;;9.70;5.75;;;;;;;26.17;41.68;96116.56;5071618;28;20201;-87
2023/05/26 12:37:47;;;;;;;6.55;5.85;;;;;;;26.31;40.95;96114.25;5071460;28;20228;-88
2023/05/26 12:40:14;;;;;;;7.70;6.38;;;;;;;26.19;40.70;96118.16;5052169;28;20205;-87
2023/05/26 12:42:41;;;;;;;8.25;6.00;;;;;;;25.94;40.32;96114.44;5062418;28;20196;-87
2023/05/26 12:45:09;;;;;;;8.30;5.80;;;;;;;25.70;41.61;96114.09;5071548;28;20201;-87
2023/05/26 12:47:35;;;;;;;5.95;5.25;;;;;;;25.44;42.11;96115.00;5059412;28;20261;-87
2023/05/26 12:50:03;;;;;;;5.80;5.20;;;;;;;25.22;42.99;96117.00;5051376;28;20240;-87
2023/05/26 12:52:31;;;;;;;6.97;5.70;;;;;;;25.10;43.54;96123.28;5050995;28;20201;-87